Startpagina
METAR-TAF:

METAR-TAF

Vliegvelden :

Guilin, China

breedte: 25-20N, lengte: 110-18E, hoogte: 166 m

Actueel weer

Dit bericht is 25 minuten geleden gemaakt, om 19:00 UTC
Wind 2 kt uit variabele richting
Temperatuur 23°C
Vochtigheid 100%
Druk 1012 hPa
Zicht: 7000 m

METAR: ZGKL 191900Z VRB01MPS 7000 NSC 23/23 Q1012 NOSIG

Tijdstip: 03:25 (19:25 UTC)

Verwachting

Dit bericht is 4 uur en het 18 minuten geleden gemaakt, om 15:07 UTC
Verwachting geldig van 19 om 18 UTC tot 20 om 18 UTC
Wind 6 kt uit het zuiden
Zicht 10 km of meer
Verspreide wolken op 3000 ft

TAF: ZGKL 191507Z 1918/2018 18003MPS 9999 SCT030 TX34/2008Z TN23/1922Z

Waarnemingen en weersverwachtingen van meer dan 4000 vliegvelden (METAR en TAF).

De beschikbare stations zijn de gele en rode punten op de kaart.

Ga met uw muis naar het station om de naam te zien.

Klik dan om waarnemingen en weersverwachtingen te zien.

kaart wijzigen: klik op de groene knoppen met een zwart kruis om in te zoomen, op de groene knop met een streepje om uit te zoomen of op de groene pijlen voor aangrenzende kaarten.


METAR-TAF: